Time;durP1;ratioP1;P1;durP2;ratioP2;P2;SDS_P1;SDS_P2;PMS_P1;PMS_P2;Temp;Humidity;BMP_temperature;BMP_pressure;BME280_temperature;BME280_humidity;BME280_pressure;Samples;Min_cycle;Max_cycle;Signal;HPM_P1;HPM_P2
2023/05/04 00:01:42;;;;;;;6.18;3.70;;;11.50;91.50;;;;;;5114064;28;20230;-76
2023/05/04 00:04:11;;;;;;;8.05;3.47;;;11.50;91.70;;;;;;5112951;28;20222;-77
2023/05/04 00:06:37;;;;;;;4.00;3.47;;;11.40;91.80;;;;;;5114738;28;20223;-76
2023/05/04 00:09:05;;;;;;;9.30;3.97;;;11.30;91.90;;;;;;5113443;28;20219;-77
2023/05/04 00:11:33;;;;;;;6.25;3.40;;;11.40;92.40;;;;;;5109168;28;20212;-75
2023/05/04 00:14:00;;;;;;;7.25;3.45;;;11.30;92.20;;;;;;5092596;28;20243;-76
2023/05/04 00:16:27;;;;;;;5.60;3.45;;;11.30;92.40;;;;;;5091429;28;20661;-76
2023/05/04 00:18:54;;;;;;;4.28;3.40;;;11.30;92.50;;;;;;5092676;28;20227;-76
2023/05/04 00:21:23;;;;;;;5.00;4.07;;;11.40;92.50;;;;;;5091949;28;20708;-77
2023/05/04 00:23:50;;;;;;;7.03;3.65;;;11.40;92.60;;;;;;5093113;28;20227;-76
2023/05/04 00:26:17;;;;;;;5.55;3.47;;;11.30;92.60;;;;;;5091886;28;20239;-75
2023/05/04 00:28:44;;;;;;;6.60;3.80;;;11.30;92.70;;;;;;5092611;28;20219;-77
2023/05/04 00:31:11;;;;;;;6.65;3.92;;;11.30;92.80;;;;;;5092227;28;20665;-77
2023/05/04 00:33:38;;;;;;;4.82;3.90;;;11.30;92.90;;;;;;5076550;28;20220;-75
2023/05/04 00:36:05;;;;;;;5.65;3.80;;;11.30;93.00;;;;;;5072191;28;20228;-76
2023/05/04 00:38:47;;;;;;;7.25;3.90;;;11.20;93.00;;;;;;5084915;28;20557;-75
2023/05/04 00:41:17;;;;;;;5.00;3.75;;;11.20;93.20;;;;;;5083251;28;20602;-77
2023/05/04 00:43:44;;;;;;;7.38;3.78;;;11.20;93.30;;;;;;5092973;28;20231;-76
2023/05/04 00:46:12;;;;;;;3.60;2.97;;;11.10;93.50;;;;;;5091959;28;20227;-76
2023/05/04 00:48:39;;;;;;;5.03;3.25;;;11.10;93.50;;;;;;5092857;28;20219;-77
2023/05/04 00:51:08;;;;;;;5.28;4.07;;;11.10;93.50;;;;;;5091634;28;20326;-76
2023/05/04 00:53:37;;;;;;;4.18;3.75;;;11.00;93.60;;;;;;5096115;28;20219;-75
2023/05/04 00:56:06;;;;;;;7.28;4.15;;;11.10;93.60;;;;;;5100968;28;20219;-77
2023/05/04 00:58:34;;;;;;;5.85;3.40;;;11.00;93.70;;;;;;5116105;28;20218;-75
2023/05/04 01:01:02;;;;;;;3.40;3.10;;;11.00;93.60;;;;;;5117153;28;20232;-76
2023/05/04 01:03:30;;;;;;;5.60;3.78;;;11.00;93.80;;;;;;5116572;28;20218;-77
2023/05/04 01:06:08;;;;;;;4.75;3.30;;;10.90;93.90;;;;;;5115488;28;20729;-76
2023/05/04 01:08:41;;;;;;;8.90;3.72;;;10.90;94.00;;;;;;5116152;28;20261;-76
2023/05/04 01:11:15;;;;;;;4.70;3.38;;;10.90;94.00;;;;;;5115803;28;20295;-76
2023/05/04 01:13:44;;;;;;;9.30;4.20;;;10.90;94.20;;;;;;5096365;28;20220;-77
2023/05/04 01:16:11;;;;;;;6.22;3.45;;;10.90;94.20;;;;;;5096704;28;20231;-75
2023/05/04 01:18:38;;;;;;;8.63;4.03;;;10.90;94.30;;;;;;5095848;28;20231;-77
2023/05/04 01:21:07;;;;;;;6.70;3.20;;;10.80;94.30;;;;;;5096012;28;20255;-77
2023/05/04 01:23:36;;;;;;;4.53;3.80;;;10.80;94.40;;;;;;5096008;28;20225;-76
2023/05/04 01:26:17;;;;;;;5.85;3.83;;;10.70;94.50;;;;;;5095691;28;20233;-77
2023/05/04 01:28:49;;;;;;;4.20;2.92;;;10.70;94.50;;;;;;5095513;28;20291;-76
2023/05/04 01:31:19;;;;;;;6.00;3.00;;;10.70;94.60;;;;;;5097002;28;20224;-76
2023/05/04 01:33:48;;;;;;;5.22;3.60;;;10.60;94.70;;;;;;5095512;28;20219;-76
2023/05/04 01:36:21;;;;;;;4.63;3.13;;;10.60;94.80;;;;;;5096026;28;20227;-77
2023/05/04 01:38:53;;;;;;;6.32;4.05;;;10.60;94.90;;;;;;5095750;28;20630;-75
2023/05/04 01:41:20;;;;;;;6.20;3.70;;;10.60;95.00;;;;;;5086947;28;20230;-75
2023/05/04 01:43:47;;;;;;;7.30;3.90;;;10.60;95.10;;;;;;5095434;28;20219;-76
2023/05/04 01:46:15;;;;;;;6.53;3.25;;;10.50;95.00;;;;;;5095973;28;20276;-77
2023/05/04 01:48:43;;;;;;;6.20;3.42;;;10.50;95.00;;;;;;5095367;28;20216;-77
2023/05/04 01:51:10;;;;;;;4.28;3.00;;;10.50;95.20;;;;;;5095267;28;20219;-76
2023/05/04 01:53:37;;;;;;;7.88;4.25;;;10.50;95.30;;;;;;5095182;28;20223;-77
2023/05/04 01:56:06;;;;;;;6.95;3.20;;;10.40;95.20;;;;;;5094505;28;20215;-76
2023/05/04 01:58:34;;;;;;;5.45;3.20;;;10.40;95.30;;;;;;5096768;28;20242;-77
2023/05/04 02:01:01;;;;;;;4.63;3.42;;;10.40;95.30;;;;;;5110847;28;20287;-77
2023/05/04 02:03:30;;;;;;;8.77;3.65;;;10.40;95.40;;;;;;5095707;28;20215;-76
2023/05/04 02:05:57;;;;;;;6.68;3.85;;;10.30;95.50;;;;;;5098523;28;20229;-76
2023/05/04 02:08:24;;;;;;;7.57;4.55;;;10.30;95.70;;;;;;5115858;28;20585;-76
2023/05/04 02:10:51;;;;;;;5.72;4.20;;;10.30;95.70;;;;;;5114902;28;20219;-77
2023/05/04 02:13:19;;;;;;;6.38;3.47;;;10.20;95.80;;;;;;5097092;28;20219;-77
2023/05/04 02:15:47;;;;;;;6.65;3.40;;;10.20;95.80;;;;;;5093915;28;20258;-76
2023/05/04 02:18:14;;;;;;;7.43;4.03;;;10.20;95.90;;;;;;5092556;28;20250;-76
2023/05/04 02:20:41;;;;;;;6.68;4.35;;;10.20;95.90;;;;;;5095019;28;20232;-76
2023/05/04 02:23:08;;;;;;;11.88;4.47;;;10.20;95.90;;;;;;5096000;28;20223;-76
2023/05/04 02:25:35;;;;;;;8.18;3.75;;;10.20;95.90;;;;;;5094319;28;20227;-76
2023/05/04 02:28:02;;;;;;;6.90;4.20;;;10.10;96.00;;;;;;5094507;28;20223;-76
2023/05/04 02:30:31;;;;;;;7.65;4.68;;;10.10;96.00;;;;;;5093428;28;20227;-77
2023/05/04 02:32:59;;;;;;;7.82;4.65;;;10.10;96.10;;;;;;5093183;28;20231;-76
2023/05/04 02:35:26;;;;;;;8.15;4.22;;;10.10;96.20;;;;;;5093391;28;20740;-76
2023/05/04 02:37:53;;;;;;;8.73;4.45;;;10.10;96.20;;;;;;5092461;28;20230;-75
2023/05/04 02:40:21;;;;;;;6.18;4.57;;;10.10;96.20;;;;;;5093922;28;20280;-78
2023/05/04 02:42:48;;;;;;;9.93;4.85;;;10.10;96.30;;;;;;5093428;28;20318;-76
2023/05/04 02:45:15;;;;;;;8.20;4.75;;;10.10;96.40;;;;;;5095429;28;20224;-76
2023/05/04 02:47:43;;;;;;;9.75;4.22;;;10.10;96.60;;;;;;5094847;28;20219;-76
2023/05/04 02:50:12;;;;;;;8.95;4.82;;;10.10;96.70;;;;;;5097400;28;20235;-76
2023/05/04 02:52:39;;;;;;;7.05;4.75;;;10.10;96.70;;;;;;5095822;28;20223;-76
2023/05/04 02:55:07;;;;;;;12.55;4.40;;;10.10;96.60;;;;;;5098243;28;20219;-77
2023/05/04 02:57:34;;;;;;;5.57;4.18;;;10.20;96.70;;;;;;5098722;28;20276;-75
2023/05/04 03:00:01;;;;;;;5.65;4.22;;;10.20;96.60;;;;;;5097682;28;20243;-77
2023/05/04 03:02:28;;;;;;;4.38;3.28;;;10.20;96.60;;;;;;5098008;28;20306;-76
2023/05/04 03:04:57;;;;;;;7.70;4.28;;;10.20;96.60;;;;;;5100128;28;20274;-78
2023/05/04 03:07:28;;;;;;;6.32;4.30;;;10.20;96.50;;;;;;5099020;28;20227;-77
2023/05/04 03:09:55;;;;;;;7.53;4.45;;;10.20;96.50;;;;;;5097045;28;20227;-77
2023/05/04 03:12:28;;;;;;;6.32;4.07;;;10.20;96.60;;;;;;5100566;28;20219;-77
2023/05/04 03:14:55;;;;;;;7.28;4.93;;;10.20;96.60;;;;;;5099869;28;20614;-77
2023/05/04 03:17:23;;;;;;;4.30;3.58;;;10.20;96.60;;;;;;5102486;28;20231;-77
2023/05/04 03:19:50;;;;;;;6.18;3.25;;;10.20;96.60;;;;;;5098565;28;20243;-76
2023/05/04 03:22:19;;;;;;;7.20;3.95;;;10.10;96.50;;;;;;5097810;28;20299;-76
2023/05/04 03:24:46;;;;;;;10.32;5.22;;;10.20;96.60;;;;;;5097783;28;20588;-76
2023/05/04 03:27:13;;;;;;;8.63;3.25;;;10.10;96.70;;;;;;5100009;28;20220;-76
2023/05/04 03:29:43;;;;;;;9.40;4.50;;;10.10;97.10;;;;;;5100374;28;20219;-78
2023/05/04 03:32:10;;;;;;;8.20;3.70;;;10.10;96.70;;;;;;5088747;28;20847;-77
2023/05/04 03:34:40;;;;;;;6.80;3.83;;;10.00;96.80;;;;;;5095556;28;20219;-77
2023/05/04 03:37:08;;;;;;;7.90;4.13;;;10.10;96.70;;;;;;5095572;28;20235;-76
2023/05/04 03:39:36;;;;;;;6.13;3.97;;;10.10;96.70;;;;;;5095711;28;20330;-75
2023/05/04 03:42:04;;;;;;;6.60;4.43;;;10.00;96.60;;;;;;5094074;28;20227;-76
2023/05/04 03:44:31;;;;;;;5.43;3.55;;;10.00;96.50;;;;;;5094489;28;20729;-76
2023/05/04 03:46:58;;;;;;;5.75;3.05;;;10.00;96.60;;;;;;5094752;28;20235;-76
2023/05/04 03:49:25;;;;;;;8.20;3.95;;;10.00;96.60;;;;;;5095392;28;20238;-75
2023/05/04 03:51:52;;;;;;;4.65;3.75;;;9.90;97.20;;;;;;5094589;28;20712;-76
2023/05/04 03:54:20;;;;;;;5.82;4.15;;;9.90;97.40;;;;;;5092132;28;20652;-76
2023/05/04 03:56:52;;;;;;;5.82;3.28;;;9.90;97.50;;;;;;5094396;28;20231;-75
2023/05/04 03:59:19;;;;;;;5.07;2.80;;;9.90;97.50;;;;;;5092925;28;20219;-75
2023/05/04 04:01:46;;;;;;;9.25;3.65;;;9.90;97.40;;;;;;5094124;28;20284;-76
2023/05/04 04:04:13;;;;;;;8.40;4.07;;;9.90;97.50;;;;;;5094324;28;20226;-77
2023/05/04 04:06:40;;;;;;;5.05;3.30;;;9.90;97.60;;;;;;5093696;28;20215;-74
2023/05/04 04:09:08;;;;;;;8.30;4.40;;;10.00;97.10;;;;;;5094872;28;20230;-75
2023/05/04 04:11:35;;;;;;;4.68;3.15;;;10.00;97.10;;;;;;5095793;28;20215;-77
2023/05/04 04:14:04;;;;;;;5.85;3.75;;;9.90;97.60;;;;;;5093633;28;20310;-77
2023/05/04 04:16:31;;;;;;;9.95;3.97;;;9.90;97.60;;;;;;5094148;28;20288;-76
2023/05/04 04:18:58;;;;;;;7.35;3.55;;;9.90;97.60;;;;;;5093030;28;20700;-77
2023/05/04 04:21:25;;;;;;;10.18;4.50;;;10.00;97.10;;;;;;5093154;28;20558;-76
2023/05/04 04:23:54;;;;;;;11.70;4.53;;;10.00;97.10;;;;;;5093116;28;20239;-77
2023/05/04 04:26:21;;;;;;;7.47;3.95;;;10.00;97.10;;;;;;5092048;28;20267;-77
2023/05/04 04:28:51;;;;;;;9.35;4.25;;;9.90;97.60;;;;;;5092871;28;20742;-78
2023/05/04 04:31:20;;;;;;;7.40;3.40;;;9.90;97.60;;;;;;5092312;28;20285;-76
2023/05/04 04:33:50;;;;;;;3.75;3.17;;;9.90;97.70;;;;;;5093343;28;20234;-75
2023/05/04 04:36:17;;;;;;;4.63;3.30;;;10.00;97.20;;;;;;5092672;28;20238;-75
2023/05/04 04:38:46;;;;;;;6.38;3.70;;;10.00;97.10;;;;;;5092930;28;20276;-77
2023/05/04 04:41:14;;;;;;;4.30;3.90;;;10.00;97.10;;;;;;5091691;28;20223;-78
2023/05/04 04:43:42;;;;;;;6.63;3.03;;;10.10;97.00;;;;;;5091503;28;20230;-78
2023/05/04 04:46:11;;;;;;;6.80;2.92;;;10.00;97.00;;;;;;5091787;28;20231;-77
2023/05/04 04:48:39;;;;;;;7.28;3.72;;;10.10;97.10;;;;;;5093201;28;20227;-76
2023/05/04 04:51:10;;;;;;;8.48;4.05;;;10.10;97.10;;;;;;5081199;28;20250;-77
2023/05/04 04:53:37;;;;;;;6.28;4.28;;;10.20;97.00;;;;;;5077220;28;20219;-77
2023/05/04 04:56:06;;;;;;;8.40;3.72;;;10.10;96.80;;;;;;5092015;28;20227;-76
2023/05/04 04:58:33;;;;;;;6.47;3.60;;;10.20;96.90;;;;;;5093751;28;20224;-77
2023/05/04 05:01:01;;;;;;;5.78;3.20;;;10.20;96.90;;;;;;5092059;28;20219;-76
2023/05/04 05:03:28;;;;;;;10.23;4.55;;;10.30;96.90;;;;;;5092693;28;20247;-76
2023/05/04 05:06:04;;;;;;;13.18;4.45;;;10.40;96.80;;;;;;5091402;28;20235;-76
2023/05/04 05:08:33;;;;;;;5.45;3.50;;;10.40;96.70;;;;;;5089818;28;20223;-76
2023/05/04 05:11:01;;;;;;;5.43;4.00;;;10.50;96.70;;;;;;5091538;28;20227;-77
2023/05/04 05:13:28;;;;;;;5.97;4.15;;;10.50;96.50;;;;;;5092583;28;20223;-77
2023/05/04 05:15:55;;;;;;;6.15;4.32;;;10.60;96.50;;;;;;5091725;28;20564;-76
2023/05/04 05:18:23;;;;;;;10.35;4.93;;;10.60;96.40;;;;;;5092419;28;20243;-76
2023/05/04 05:20:52;;;;;;;4.28;3.58;;;10.70;96.20;;;;;;5091933;28;20227;-78
2023/05/04 05:23:21;;;;;;;6.63;4.50;;;10.80;96.30;;;;;;5092556;28;20285;-78
2023/05/04 05:25:48;;;;;;;6.03;3.95;;;10.90;96.30;;;;;;5090982;28;20654;-77
2023/05/04 05:28:15;;;;;;;4.78;4.38;;;10.90;96.10;;;;;;5092911;28;20230;-78
2023/05/04 05:30:46;;;;;;;4.03;3.63;;;11.00;96.10;;;;;;5091753;28;20630;-77
2023/05/04 05:33:14;;;;;;;4.13;3.72;;;11.10;96.00;;;;;;5092189;28;20233;-78
2023/05/04 05:35:42;;;;;;;6.60;3.85;;;11.10;96.00;;;;;;5091864;28;20684;-77
2023/05/04 05:38:09;;;;;;;5.13;3.72;;;11.20;95.90;;;;;;5091859;28;20223;-77
2023/05/04 05:40:38;;;;;;;4.00;3.50;;;11.20;95.80;;;;;;5096397;28;20215;-77
2023/05/04 05:43:10;;;;;;;6.13;4.30;;;11.30;95.80;;;;;;5095500;28;20239;-76
2023/05/04 05:45:37;;;;;;;7.75;3.85;;;11.40;95.80;;;;;;5096893;28;20227;-76
2023/05/04 05:48:04;;;;;;;4.20;3.28;;;11.50;95.70;;;;;;5095914;28;20688;-77
2023/05/04 05:50:31;;;;;;;6.03;3.70;;;11.50;95.50;;;;;;5096160;28;20310;-77
2023/05/04 05:53:01;;;;;;;12.75;8.70;;;11.60;95.30;;;;;;5094821;28;20604;-77
2023/05/04 05:55:28;;;;;;;9.10;6.28;;;11.70;95.00;;;;;;5095999;28;20228;-77
2023/05/04 05:57:57;;;;;;;9.70;5.10;;;11.80;94.90;;;;;;5096058;28;20288;-77
2023/05/04 06:00:25;;;;;;;5.97;4.82;;;11.80;94.50;;;;;;5096363;28;20292;-76
2023/05/04 06:02:52;;;;;;;7.30;4.63;;;11.90;94.20;;;;;;5095058;28;20242;-76
2023/05/04 06:05:19;;;;;;;8.18;4.45;;;12.00;94.00;;;;;;5094804;28;20227;-77
2023/05/04 06:07:46;;;;;;;7.13;4.40;;;12.00;93.90;;;;;;5095040;28;20227;-77
2023/05/04 06:10:14;;;;;;;7.35;3.70;;;12.10;93.80;;;;;;5095489;28;20235;-76
2023/05/04 06:12:43;;;;;;;4.65;4.25;;;12.20;93.70;;;;;;5094769;28;20231;-76
2023/05/04 06:15:13;;;;;;;5.45;3.88;;;12.30;93.70;;;;;;5082466;28;20250;-77
2023/05/04 06:17:40;;;;;;;4.75;3.85;;;12.30;93.50;;;;;;5082030;28;20613;-76
2023/05/04 06:20:09;;;;;;;5.25;3.92;;;12.40;93.30;;;;;;5095685;28;20227;-76
2023/05/04 06:22:37;;;;;;;6.03;4.38;;;12.50;93.10;;;;;;5096105;28;20223;-76
2023/05/04 06:25:07;;;;;;;5.38;4.82;;;12.60;93.10;;;;;;5083775;28;20310;-76
2023/05/04 06:27:34;;;;;;;3.85;3.25;;;12.70;93.10;;;;;;5080355;28;20360;-76
2023/05/04 06:30:09;;;;;;;5.95;4.50;;;12.70;93.10;;;;;;5095560;28;20237;-77
2023/05/04 06:32:38;;;;;;;17.40;5.35;;;12.80;92.40;;;;;;5095081;28;20223;-76
2023/05/04 06:35:07;;;;;;;6.22;4.00;;;12.90;92.50;;;;;;5094931;28;20250;-75
2023/05/04 06:37:34;;;;;;;4.65;3.53;;;12.90;92.30;;;;;;5094486;28;20234;-76
2023/05/04 06:40:02;;;;;;;6.95;4.75;;;13.00;92.20;;;;;;5094275;28;20607;-76
2023/05/04 06:42:30;;;;;;;5.38;4.40;;;13.10;92.20;;;;;;5094596;28;20290;-76
2023/05/04 06:44:58;;;;;;;5.63;4.30;;;13.20;92.40;;;;;;5093945;28;20231;-76
2023/05/04 06:47:28;;;;;;;6.47;4.70;;;13.30;92.50;;;;;;5081178;28;20517;-76
2023/05/04 06:50:00;;;;;;;4.03;3.65;;;13.40;92.30;;;;;;5081386;28;20219;-77
2023/05/04 06:52:28;;;;;;;5.90;3.70;;;13.50;92.10;;;;;;5094031;28;20620;-77
2023/05/04 06:54:55;;;;;;;6.13;4.60;;;13.70;91.70;;;;;;5094651;28;20219;-76
2023/05/04 06:57:28;;;;;;;6.55;3.78;;;13.70;91.70;;;;;;5094180;28;20860;-77
2023/05/04 06:59:55;;;;;;;7.97;4.45;;;13.80;91.80;;;;;;5093726;28;20692;-76
2023/05/04 07:02:23;;;;;;;7.85;4.25;;;13.90;91.50;;;;;;5094176;28;20695;-77
2023/05/04 07:04:53;;;;;;;4.53;4.10;;;14.00;90.80;;;;;;5094714;28;20228;-76
2023/05/04 07:07:23;;;;;;;7.80;4.00;;;14.10;90.10;;;;;;5095091;28;20306;-76
2023/05/04 07:09:50;;;;;;;7.88;5.55;;;14.20;90.30;;;;;;5094589;28;20254;-76
2023/05/04 07:12:18;;;;;;;5.10;4.50;;;14.20;90.30;;;;;;5097457;28;20560;-75
2023/05/04 07:14:48;;;;;;;6.87;3.87;;;14.30;90.00;;;;;;5085749;28;20685;-76
2023/05/04 07:17:19;;;;;;;7.38;4.00;;;14.40;89.40;;;;;;5094510;28;20526;-76
2023/05/04 07:19:48;;;;;;;5.10;3.83;;;14.50;90.00;;;;;;5094049;28;20268;-76
2023/05/04 07:22:15;;;;;;;4.90;4.10;;;14.70;90.20;;;;;;5066075;28;20461;-75
2023/05/04 07:24:50;;;;;;;8.33;4.40;;;14.80;90.50;;;;;;5093538;28;20531;-76
2023/05/04 07:27:18;;;;;;;7.00;4.30;;;15.00;90.30;;;;;;5094340;28;20461;-76
2023/05/04 07:29:45;;;;;;;6.43;5.33;;;15.10;89.30;;;;;;5095045;28;20466;-76
2023/05/04 07:32:13;;;;;;;7.13;6.20;;;15.20;86.60;;;;;;5094787;28;20465;-76
2023/05/04 07:34:42;;;;;;;4.73;4.23;;;15.40;86.40;;;;;;5096098;28;20533;-76
2023/05/04 07:37:10;;;;;;;6.20;4.27;;;15.60;85.90;;;;;;5094772;28;20473;-77
2023/05/04 07:39:37;;;;;;;4.50;3.60;;;15.70;84.50;;;;;;5096495;28;20465;-75
2023/05/04 07:42:30;;;;;;;7.60;4.37;;;15.90;84.30;;;;;;5097682;28;20473;-76
2023/05/04 07:45:18;;;;;;;7.37;3.87;;;16.00;84.50;;;;;;5073749;28;20499;-77
2023/05/04 07:47:46;;;;;;;6.00;3.67;;;16.20;82.90;;;;;;5084382;28;20474;-76
2023/05/04 07:50:15;;;;;;;5.77;3.93;;;16.30;80.20;;;;;;5077371;28;20476;-77
2023/05/04 07:52:44;;;;;;;5.20;4.30;;;16.40;79.70;;;;;;5094903;28;20477;-76
2023/05/04 07:55:18;;;;;;;7.40;5.20;;;16.50;80.90;;;;;;5093660;28;20469;-77
2023/05/04 07:57:49;;;;;;;7.20;4.60;;;16.50;78.40;;;;;;5094592;28;20465;-76
2023/05/04 08:00:20;;;;;;;4.47;3.40;;;16.60;77.60;;;;;;5093187;28;20481;-75
2023/05/04 08:02:50;;;;;;;7.73;4.83;;;16.70;78.40;;;;;;5093947;28;20479;-76
2023/05/04 08:05:17;;;;;;;7.27;6.07;;;16.90;76.60;;;;;;5093744;28;20488;-75
2023/05/04 08:07:46;;;;;;;7.03;4.10;;;16.90;78.10;;;;;;5076863;28;20478;-75
2023/05/04 08:10:13;;;;;;;3.43;3.13;;;17.00;78.00;;;;;;5073496;28;21008;-75
2023/05/04 08:12:41;;;;;;;9.43;4.10;;;17.10;77.80;;;;;;5093280;28;20489;-76
2023/05/04 08:15:12;;;;;;;4.70;3.43;;;17.10;77.40;;;;;;5092027;28;20478;-76
2023/05/04 08:17:39;;;;;;;6.27;3.50;;;17.20;75.60;;;;;;5093583;28;20449;-75
2023/05/04 08:20:08;;;;;;;8.20;3.07;;;17.20;74.40;;;;;;5093190;28;20466;-76
2023/05/04 08:22:36;;;;;;;5.40;3.23;;;17.30;73.20;;;;;;5093179;28;20903;-75
2023/05/04 08:25:05;;;;;;;5.93;3.60;;;17.40;73.60;;;;;;5093716;28;20465;-77
2023/05/04 08:27:32;;;;;;;7.27;3.97;;;17.40;72.80;;;;;;5092666;28;20500;-75
2023/05/04 08:29:59;;;;;;;8.17;3.13;;;17.40;71.30;;;;;;5093446;28;20526;-75
2023/05/04 08:32:31;;;;;;;3.93;3.00;;;17.40;71.30;;;;;;5092073;28;20473;-75
2023/05/04 08:35:00;;;;;;;5.00;3.30;;;17.50;71.40;;;;;;5092321;28;20480;-76
2023/05/04 08:37:27;;;;;;;4.87;3.10;;;17.60;71.40;;;;;;5093636;28;20842;-76
2023/05/04 08:39:54;;;;;;;5.90;3.80;;;17.70;72.30;;;;;;5093810;28;20469;-76
2023/05/04 08:42:29;;;;;;;4.53;4.10;;;17.70;71.60;;;;;;5092962;28;20461;-76
2023/05/04 08:44:57;;;;;;;4.30;3.33;;;17.80;72.90;;;;;;5094083;28;20521;-76
2023/05/04 08:47:25;;;;;;;5.13;3.10;;;17.80;71.40;;;;;;5093494;28;20474;-76
2023/05/04 08:49:55;;;;;;;3.90;3.57;;;17.80;69.50;;;;;;5094374;28;20457;-76
2023/05/04 08:52:25;;;;;;;5.17;3.37;;;17.90;69.60;;;;;;5093564;28;20470;-76
2023/05/04 08:54:55;;;;;;;3.90;2.23;;;17.90;70.20;;;;;;5093239;28;20565;-75
2023/05/04 08:57:23;;;;;;;4.60;2.93;;;18.00;69.70;;;;;;5093580;28;20946;-76
2023/05/04 08:59:53;;;;;;;8.10;3.50;;;17.90;68.10;;;;;;5093844;28;20461;-75
2023/05/04 09:02:22;;;;;;;7.37;3.20;;;17.90;67.40;;;;;;5065860;28;20596;-76
2023/05/04 09:04:49;;;;;;;3.30;3.00;;;17.90;67.60;;;;;;5094428;28;20474;-75
2023/05/04 09:07:19;;;;;;;6.43;3.20;;;17.90;68.60;;;;;;5089046;28;20469;-75
2023/05/04 09:09:47;;;;;;;3.30;3.00;;;18.00;69.70;;;;;;5094165;28;20474;-75
2023/05/04 09:12:21;;;;;;;7.23;3.53;;;17.90;66.90;;;;;;5092481;28;20850;-76
2023/05/04 09:14:48;;;;;;;3.10;2.90;;;17.90;66.20;;;;;;5097332;28;20472;-76
2023/05/04 09:17:24;;;;;;;3.30;2.73;;;17.90;67.10;;;;;;5097906;28;20465;-77
2023/05/04 09:20:03;;;;;;;6.20;3.10;;;17.90;66.30;;;;;;5095972;28;20463;-76
2023/05/04 09:22:32;;;;;;;3.90;3.33;;;18.00;66.50;;;;;;5096287;28;20809;-76
2023/05/04 09:25:10;;;;;;;4.23;2.80;;;18.00;66.20;;;;;;5097239;28;20473;-77
2023/05/04 09:27:40;;;;;;;4.50;2.93;;;18.10;66.30;;;;;;5097275;28;20488;-77
2023/05/04 09:30:08;;;;;;;4.03;2.97;;;18.20;65.90;;;;;;5097253;28;20939;-76
2023/05/04 09:32:45;;;;;;;2.83;2.33;;;18.20;64.70;;;;;;5096192;28;20475;-77
2023/05/04 09:35:12;;;;;;;4.07;2.90;;;18.20;64.30;;;;;;5096863;28;20828;-76
2023/05/04 09:37:47;;;;;;;4.70;3.43;;;18.20;64.50;;;;;;5096539;28;20476;-76
2023/05/04 09:40:16;;;;;;;3.60;2.97;;;18.20;64.40;;;;;;5097034;28;20530;-77
2023/05/04 09:42:43;;;;;;;3.77;2.70;;;18.20;64.70;;;;;;5097115;28;20474;-76
2023/05/04 09:45:12;;;;;;;4.63;3.17;;;18.20;65.80;;;;;;5097019;28;20872;-76
2023/05/04 09:47:41;;;;;;;4.73;3.17;;;18.20;66.20;;;;;;5096895;28;20469;-76
2023/05/04 09:50:16;;;;;;;6.10;3.37;;;18.30;65.10;;;;;;5098121;28;20469;-77
2023/05/04 09:52:45;;;;;;;5.13;3.07;;;18.30;64.30;;;;;;5096244;28;20544;-77
2023/05/04 09:55:18;;;;;;;3.40;2.97;;;18.30;64.80;;;;;;5097805;28;20818;-75
2023/05/04 09:57:46;;;;;;;3.63;3.17;;;18.40;64.30;;;;;;5096601;28;20479;-76
2023/05/04 10:00:16;;;;;;;4.03;3.23;;;18.40;64.30;;;;;;5096074;28;20465;-76
2023/05/04 10:02:43;;;;;;;5.20;3.50;;;18.40;63.90;;;;;;5097535;28;20802;-76
2023/05/04 10:05:15;;;;;;;3.63;2.90;;;18.40;62.90;;;;;;5099194;28;20469;-76
2023/05/04 10:07:44;;;;;;;6.57;3.10;;;18.40;63.40;;;;;;5096161;28;20473;-74
2023/05/04 10:10:16;;;;;;;3.53;2.97;;;18.40;63.40;;;;;;5098110;28;20469;-76
2023/05/04 10:12:44;;;;;;;5.83;4.30;;;18.50;64.40;;;;;;5097454;28;20540;-75
2023/05/04 10:15:13;;;;;;;4.77;3.17;;;18.50;64.00;;;;;;5098506;28;20473;-76
2023/05/04 10:17:55;;;;;;;5.13;3.63;;;18.60;64.40;;;;;;5095666;28;20576;-76
2023/05/04 10:20:46;;;;;;;3.80;2.93;;;18.60;64.30;;;;;;5097961;28;20965;-75
2023/05/04 10:23:47;;;;;;;3.77;3.43;;;18.70;64.00;;;;;;5100310;28;20488;-75
2023/05/04 10:26:31;;;;;;;4.80;3.23;;;18.70;63.90;;;;;;5103864;28;20574;-75
2023/05/04 10:29:15;;;;;;;3.77;3.17;;;18.70;63.20;;;;;;5095394;28;20526;-75
2023/05/04 10:31:45;;;;;;;6.13;3.20;;;18.80;62.30;;;;;;5104895;28;20495;-75
2023/05/04 10:34:12;;;;;;;4.80;3.77;;;18.70;61.00;;;;;;5104753;28;20476;-75
2023/05/04 10:36:40;;;;;;;3.37;2.50;;;18.70;59.80;;;;;;5100748;28;20473;-76
2023/05/04 10:39:19;;;;;;;4.93;2.93;;;18.70;60.10;;;;;;5098357;28;20479;-76
2023/05/04 10:42:11;;;;;;;4.97;3.07;;;18.80;60.20;;;;;;5099455;28;20475;-76
2023/05/04 10:44:51;;;;;;;4.80;3.00;;;18.70;59.60;;;;;;5084135;28;20493;-76
2023/05/04 10:47:28;;;;;;;3.60;3.30;;;18.80;59.20;;;;;;5099686;28;20495;-76
2023/05/04 10:50:05;;;;;;;7.40;3.03;;;18.70;57.90;;;;;;5100934;28;20465;-76
2023/05/04 10:52:33;;;;;;;3.33;2.60;;;18.70;58.30;;;;;;5101670;28;20511;-75
2023/05/04 10:55:02;;;;;;;6.13;3.50;;;18.80;59.00;;;;;;5101386;28;20496;-76
2023/05/04 10:57:30;;;;;;;2.83;2.53;;;18.90;58.10;;;;;;5100252;28;21069;-75
2023/05/04 11:00:03;;;;;;;3.57;3.20;;;19.00;58.00;;;;;;5102066;28;20561;-76
2023/05/04 11:02:32;;;;;;;5.60;3.37;;;19.00;57.30;;;;;;5098665;28;20457;-76
2023/05/04 11:05:05;;;;;;;7.10;4.23;;;19.10;58.40;;;;;;5097311;28;20457;-77
2023/05/04 11:07:35;;;;;;;4.10;3.40;;;19.20;58.80;;;;;;5093261;28;20454;-76
2023/05/04 11:10:04;;;;;;;3.50;3.00;;;19.20;58.70;;;;;;5094476;28;20870;-75
2023/05/04 11:12:32;;;;;;;4.70;3.00;;;19.30;58.40;;;;;;5092838;28;20458;-75
2023/05/04 11:15:07;;;;;;;4.50;3.20;;;19.30;58.30;;;;;;5093361;28;20462;-75
2023/05/04 11:17:34;;;;;;;2.43;2.23;;;19.20;56.20;;;;;;5093442;28;20542;-75
2023/05/04 11:20:03;;;;;;;4.97;3.20;;;19.20;57.00;;;;;;5093821;28;20474;-75
2023/05/04 11:22:33;;;;;;;4.83;3.00;;;19.20;57.20;;;;;;5093133;28;20909;-75
2023/05/04 11:25:00;;;;;;;4.63;3.27;;;19.20;57.20;;;;;;5093550;28;20495;-76
2023/05/04 11:27:29;;;;;;;6.50;3.27;;;19.20;55.80;;;;;;5093599;28;20480;-76
2023/05/04 11:29:57;;;;;;;3.47;3.23;;;19.20;55.60;;;;;;5093072;28;20526;-75
2023/05/04 11:32:34;;;;;;;3.80;2.80;;;19.30;56.00;;;;;;5093475;28;20493;-74
2023/05/04 11:35:05;;;;;;;5.43;3.27;;;19.30;56.30;;;;;;5093220;28;20559;-75
2023/05/04 11:37:39;;;;;;;3.20;2.90;;;19.30;56.50;;;;;;5093114;28;20538;-74
2023/05/04 11:40:10;;;;;;;5.50;3.90;;;19.40;57.00;;;;;;5091978;28;20511;-75
2023/05/04 11:42:40;;;;;;;8.10;3.30;;;19.40;55.90;;;;;;5092923;28;20468;-76
2023/05/04 11:45:10;;;;;;;6.87;3.40;;;19.40;54.50;;;;;;5093306;28;20485;-75
2023/05/04 11:47:38;;;;;;;3.80;3.37;;;19.30;54.40;;;;;;5093527;28;22021;-77
2023/05/04 11:50:09;;;;;;;5.10;3.73;;;19.40;54.90;;;;;;5093900;28;20461;-77
2023/05/04 11:52:39;;;;;;;3.97;3.67;;;19.40;54.80;;;;;;5093205;28;20850;-76
2023/05/04 11:55:08;;;;;;;5.80;3.10;;;19.50;55.10;;;;;;5093924;28;20480;-75
2023/05/04 11:57:38;;;;;;;5.80;3.93;;;19.60;55.50;;;;;;5091104;28;20473;-75
2023/05/04 12:00:08;;;;;;;4.53;3.77;;;19.60;54.00;;;;;;5095770;28;20469;-74
2023/05/04 12:02:36;;;;;;;6.37;3.00;;;19.60;54.20;;;;;;5095717;28;20527;-76
2023/05/04 12:05:14;;;;;;;5.53;3.63;;;19.60;54.00;;;;;;5095476;28;20970;-76
2023/05/04 12:07:41;;;;;;;3.53;3.23;;;19.60;54.00;;;;;;5096475;28;20445;-76
2023/05/04 12:10:09;;;;;;;3.67;3.10;;;19.60;54.80;;;;;;5097591;28;20465;-76
2023/05/04 12:12:45;;;;;;;4.87;3.17;;;19.60;54.80;;;;;;5094084;28;20594;-76
2023/05/04 12:15:13;;;;;;;3.97;3.07;;;19.70;54.50;;;;;;5094437;28;20477;-75
2023/05/04 12:17:41;;;;;;;4.33;3.20;;;19.70;55.00;;;;;;5094101;28;20465;-75
2023/05/04 12:20:09;;;;;;;7.03;3.50;;;19.60;54.50;;;;;;5095319;28;20655;-76
2023/05/04 12:22:36;;;;;;;4.53;3.07;;;19.60;54.00;;;;;;5096878;28;20496;-76
2023/05/04 12:25:03;;;;;;;3.90;3.60;;;19.60;54.00;;;;;;5096454;28;20823;-76
2023/05/04 12:27:31;;;;;;;5.83;3.40;;;19.60;54.30;;;;;;5094809;28;20469;-75
2023/05/04 12:29:59;;;;;;;5.70;3.80;;;19.60;54.60;;;;;;5095320;28;20488;-75
2023/05/04 12:32:27;;;;;;;5.33;3.40;;;19.70;55.40;;;;;;5094546;28;20465;-76
2023/05/04 12:34:54;;;;;;;2.83;2.63;;;19.70;56.20;;;;;;5072697;28;20462;-75
2023/05/04 12:37:21;;;;;;;4.30;2.87;;;19.70;55.70;;;;;;5089651;28;20472;-75
2023/05/04 12:39:48;;;;;;;8.40;3.20;;;19.80;55.90;;;;;;5097547;28;20470;-76
2023/05/04 12:42:15;;;;;;;4.70;4.30;;;19.80;56.20;;;;;;5096934;28;20756;-76
2023/05/04 12:44:42;;;;;;;3.73;3.33;;;19.90;56.50;;;;;;5093332;28;20981;-77
2023/05/04 12:47:10;;;;;;;5.03;3.63;;;19.90;56.50;;;;;;5094870;28;21016;-77
2023/05/04 12:49:45;;;;;;;5.07;3.23;;;20.00;56.10;;;;;;5097562;28;20522;-75
2023/05/04 12:52:12;;;;;;;7.03;4.30;;;20.10;55.10;;;;;;5098496;28;20564;-75
2023/05/04 12:54:54;;;;;;;5.70;2.80;;;20.10;54.50;;;;;;5069112;28;21005;-76
2023/05/04 12:57:21;;;;;;;3.63;3.20;;;20.10;54.50;;;;;;5099523;28;20983;-77
2023/05/04 12:59:48;;;;;;;8.47;3.97;;;20.10;54.90;;;;;;5097374;28;20480;-76